sensor_id;sensor_type;location;lat;lon;timestamp;temperature;humidity
17827;DHT22;9038;48.208;16.308;2023-09-19T00:01:15;22.00;99.90
17827;DHT22;9038;48.208;16.308;2023-09-19T00:03:20;21.90;99.90
17827;DHT22;9038;48.208;16.308;2023-09-19T00:05:23;21.90;99.90
17827;DHT22;9038;48.208;16.308;2023-09-19T00:07:24;21.90;99.90
17827;DHT22;9038;48.208;16.308;2023-09-19T00:09:26;21.80;99.90
17827;DHT22;9038;48.208;16.308;2023-09-19T00:11:28;21.70;99.90
17827;DHT22;9038;48.208;16.308;2023-09-19T00:13:29;21.70;99.90
17827;DHT22;9038;48.208;16.308;2023-09-19T00:15:35;21.60;99.90
17827;DHT22;9038;48.208;16.308;2023-09-19T00:17:39;21.50;99.90
17827;DHT22;9038;48.208;16.308;2023-09-19T00:19:41;21.40;99.90
17827;DHT22;9038;48.208;16.308;2023-09-19T00:21:43;21.20;99.90
17827;DHT22;9038;48.208;16.308;2023-09-19T00:23:46;21.20;99.90
17827;DHT22;9038;48.208;16.308;2023-09-19T00:25:47;21.00;99.90
17827;DHT22;9038;48.208;16.308;2023-09-19T00:27:51;20.90;99.90
17827;DHT22;9038;48.208;16.308;2023-09-19T00:29:53;20.70;99.90
17827;DHT22;9038;48.208;16.308;2023-09-19T00:31:54;20.60;99.90
17827;DHT22;9038;48.208;16.308;2023-09-19T00:33:58;20.50;99.90
17827;DHT22;9038;48.208;16.308;2023-09-19T00:36:04;20.50;99.90
17827;DHT22;9038;48.208;16.308;2023-09-19T00:38:06;20.40;99.90
17827;DHT22;9038;48.208;16.308;2023-09-19T00:40:08;20.40;99.90
17827;DHT22;9038;48.208;16.308;2023-09-19T00:42:17;20.40;99.90
17827;DHT22;9038;48.208;16.308;2023-09-19T00:44:19;20.40;99.90
17827;DHT22;9038;48.208;16.308;2023-09-19T00:46:23;20.30;99.90
17827;DHT22;9038;48.208;16.308;2023-09-19T00:48:26;20.30;99.90
17827;DHT22;9038;48.208;16.308;2023-09-19T00:50:30;20.30;99.90
17827;DHT22;9038;48.208;16.308;2023-09-19T00:52:33;20.30;99.90
17827;DHT22;9038;48.208;16.308;2023-09-19T00:54:36;20.30;99.90
17827;DHT22;9038;48.208;16.308;2023-09-19T00:56:38;20.20;99.90
17827;DHT22;9038;48.208;16.308;2023-09-19T00:58:40;20.20;99.90
17827;DHT22;9038;48.208;16.308;2023-09-19T01:00:41;20.20;99.90
17827;DHT22;9038;48.208;16.308;2023-09-19T01:02:45;20.20;99.90
17827;DHT22;9038;48.208;16.308;2023-09-19T01:04:45;20.20;99.90
17827;DHT22;9038;48.208;16.308;2023-09-19T01:06:48;20.20;99.90
17827;DHT22;9038;48.208;16.308;2023-09-19T01:08:53;20.10;99.90
17827;DHT22;9038;48.208;16.308;2023-09-19T01:10:58;20.10;99.90
17827;DHT22;9038;48.208;16.308;2023-09-19T01:13:02;20.00;99.90
17827;DHT22;9038;48.208;16.308;2023-09-19T01:15:09;20.00;99.90
17827;DHT22;9038;48.208;16.308;2023-09-19T01:17:16;19.90;99.90
17827;DHT22;9038;48.208;16.308;2023-09-19T01:19:35;19.90;99.90
17827;DHT22;9038;48.208;16.308;2023-09-19T01:21:48;19.80;99.90
17827;DHT22;9038;48.208;16.308;2023-09-19T01:24:10;19.80;99.90
17827;DHT22;9038;48.208;16.308;2023-09-19T01:26:18;19.80;99.90
17827;DHT22;9038;48.208;16.308;2023-09-19T01:28:31;19.70;99.90
17827;DHT22;9038;48.208;16.308;2023-09-19T01:30:40;19.70;99.90
17827;DHT22;9038;48.208;16.308;2023-09-19T01:32:44;19.70;99.90
17827;DHT22;9038;48.208;16.308;2023-09-19T01:34:46;19.70;99.90
17827;DHT22;9038;48.208;16.308;2023-09-19T01:36:49;19.60;99.90
17827;DHT22;9038;48.208;16.308;2023-09-19T01:38:50;19.60;99.90
17827;DHT22;9038;48.208;16.308;2023-09-19T01:40:53;19.60;99.90
17827;DHT22;9038;48.208;16.308;2023-09-19T01:42:57;19.50;99.90
17827;DHT22;9038;48.208;16.308;2023-09-19T01:45:02;19.50;99.90
17827;DHT22;9038;48.208;16.308;2023-09-19T01:47:08;19.40;99.90
17827;DHT22;9038;48.208;16.308;2023-09-19T01:49:15;19.30;99.90
17827;DHT22;9038;48.208;16.308;2023-09-19T01:51:20;19.30;99.90
17827;DHT22;9038;48.208;16.308;2023-09-19T01:53:24;19.20;99.90
17827;DHT22;9038;48.208;16.308;2023-09-19T01:55:28;19.20;99.90
17827;DHT22;9038;48.208;16.308;2023-09-19T01:57:32;19.10;99.90
17827;DHT22;9038;48.208;16.308;2023-09-19T01:59:36;19.10;99.90
17827;DHT22;9038;48.208;16.308;2023-09-19T02:01:40;19.00;99.90
17827;DHT22;9038;48.208;16.308;2023-09-19T02:03:46;19.00;99.90
17827;DHT22;9038;48.208;16.308;2023-09-19T02:05:49;18.90;99.90
17827;DHT22;9038;48.208;16.308;2023-09-19T02:07:51;18.80;99.90
17827;DHT22;9038;48.208;16.308;2023-09-19T02:09:54;18.80;99.90
17827;DHT22;9038;48.208;16.308;2023-09-19T02:11:56;18.80;99.90
17827;DHT22;9038;48.208;16.308;2023-09-19T02:13:59;18.70;99.90
17827;DHT22;9038;48.208;16.308;2023-09-19T02:16:01;18.70;99.90
17827;DHT22;9038;48.208;16.308;2023-09-19T02:18:04;18.60;99.90
17827;DHT22;9038;48.208;16.308;2023-09-19T02:20:09;18.50;99.90
17827;DHT22;9038;48.208;16.308;2023-09-19T02:22:15;18.50;99.90
17827;DHT22;9038;48.208;16.308;2023-09-19T02:24:16;18.60;99.90
17827;DHT22;9038;48.208;16.308;2023-09-19T02:26:19;18.60;99.90
17827;DHT22;9038;48.208;16.308;2023-09-19T02:28:21;18.60;99.90
17827;DHT22;9038;48.208;16.308;2023-09-19T02:30:23;18.60;99.90
17827;DHT22;9038;48.208;16.308;2023-09-19T02:32:25;18.60;99.90
17827;DHT22;9038;48.208;16.308;2023-09-19T02:34:27;18.60;99.90
17827;DHT22;9038;48.208;16.308;2023-09-19T02:36:30;18.60;99.90
17827;DHT22;9038;48.208;16.308;2023-09-19T02:38:32;18.60;99.90
17827;DHT22;9038;48.208;16.308;2023-09-19T02:40:34;18.70;99.90
17827;DHT22;9038;48.208;16.308;2023-09-19T02:42:37;18.70;99.90
17827;DHT22;9038;48.208;16.308;2023-09-19T02:44:38;18.80;99.90
17827;DHT22;9038;48.208;16.308;2023-09-19T02:46:40;18.90;99.90
17827;DHT22;9038;48.208;16.308;2023-09-19T02:48:42;19.00;99.90
17827;DHT22;9038;48.208;16.308;2023-09-19T02:50:44;19.10;99.90
17827;DHT22;9038;48.208;16.308;2023-09-19T02:52:47;19.10;99.90
17827;DHT22;9038;48.208;16.308;2023-09-19T02:54:49;19.20;99.90
17827;DHT22;9038;48.208;16.308;2023-09-19T02:56:51;19.20;99.90
17827;DHT22;9038;48.208;16.308;2023-09-19T02:58:54;19.30;99.90
17827;DHT22;9038;48.208;16.308;2023-09-19T03:00:56;19.30;99.90
17827;DHT22;9038;48.208;16.308;2023-09-19T03:02:59;19.30;99.90
17827;DHT22;9038;48.208;16.308;2023-09-19T03:05:00;19.40;99.90
17827;DHT22;9038;48.208;16.308;2023-09-19T03:07:03;19.40;99.90
17827;DHT22;9038;48.208;16.308;2023-09-19T03:09:07;19.40;99.90
17827;DHT22;9038;48.208;16.308;2023-09-19T03:11:14;19.40;99.90
17827;DHT22;9038;48.208;16.308;2023-09-19T03:13:16;19.50;99.90
17827;DHT22;9038;48.208;16.308;2023-09-19T03:15:18;19.50;99.90
17827;DHT22;9038;48.208;16.308;2023-09-19T03:17:20;19.50;99.90
17827;DHT22;9038;48.208;16.308;2023-09-19T03:19:21;19.50;99.90
17827;DHT22;9038;48.208;16.308;2023-09-19T03:21:23;19.60;99.90
17827;DHT22;9038;48.208;16.308;2023-09-19T03:23:26;19.60;99.90
17827;DHT22;9038;48.208;16.308;2023-09-19T03:25:29;19.60;99.90
17827;DHT22;9038;48.208;16.308;2023-09-19T03:27:31;19.60;99.90
17827;DHT22;9038;48.208;16.308;2023-09-19T03:29:32;19.60;99.90
17827;DHT22;9038;48.208;16.308;2023-09-19T03:31:34;19.70;99.90
17827;DHT22;9038;48.208;16.308;2023-09-19T03:33:38;19.70;99.90
17827;DHT22;9038;48.208;16.308;2023-09-19T03:35:39;19.70;99.90
17827;DHT22;9038;48.208;16.308;2023-09-19T03:37:41;19.70;99.90
17827;DHT22;9038;48.208;16.308;2023-09-19T03:39:43;19.70;99.90
17827;DHT22;9038;48.208;16.308;2023-09-19T03:41:46;19.70;99.90
17827;DHT22;9038;48.208;16.308;2023-09-19T03:43:48;19.70;99.90
17827;DHT22;9038;48.208;16.308;2023-09-19T03:45:49;19.70;99.90
17827;DHT22;9038;48.208;16.308;2023-09-19T03:47:51;19.70;99.90
17827;DHT22;9038;48.208;16.308;2023-09-19T03:50:00;19.70;99.90
17827;DHT22;9038;48.208;16.308;2023-09-19T03:52:02;19.80;99.90
17827;DHT22;9038;48.208;16.308;2023-09-19T03:54:04;19.70;99.90
17827;DHT22;9038;48.208;16.308;2023-09-19T03:56:05;19.70;99.90
17827;DHT22;9038;48.208;16.308;2023-09-19T03:58:09;19.70;99.90
17827;DHT22;9038;48.208;16.308;2023-09-19T04:00:11;19.70;99.90
17827;DHT22;9038;48.208;16.308;2023-09-19T04:02:14;19.70;99.90
17827;DHT22;9038;48.208;16.308;2023-09-19T04:04:22;19.60;99.90
17827;DHT22;9038;48.208;16.308;2023-09-19T04:06:25;19.70;99.90
17827;DHT22;9038;48.208;16.308;2023-09-19T04:08:27;19.70;99.90
17827;DHT22;9038;48.208;16.308;2023-09-19T04:10:30;19.60;99.90
17827;DHT22;9038;48.208;16.308;2023-09-19T04:12:31;19.70;99.90
17827;DHT22;9038;48.208;16.308;2023-09-19T04:14:34;19.60;99.90
17827;DHT22;9038;48.208;16.308;2023-09-19T04:16:36;19.60;99.90
17827;DHT22;9038;48.208;16.308;2023-09-19T04:18:46;19.60;99.90
17827;DHT22;9038;48.208;16.308;2023-09-19T04:20:48;19.60;99.90
17827;DHT22;9038;48.208;16.308;2023-09-19T04:22:50;19.70;99.90
17827;DHT22;9038;48.208;16.308;2023-09-19T04:24:51;19.70;99.90
17827;DHT22;9038;48.208;16.308;2023-09-19T04:26:53;19.70;99.90
17827;DHT22;9038;48.208;16.308;2023-09-19T04:28:55;19.70;99.90
17827;DHT22;9038;48.208;16.308;2023-09-19T04:30:58;19.70;99.90
17827;DHT22;9038;48.208;16.308;2023-09-19T04:33:01;19.70;99.90
17827;DHT22;9038;48.208;16.308;2023-09-19T04:35:03;19.60;99.90
17827;DHT22;9038;48.208;16.308;2023-09-19T04:37:06;19.60;99.90
17827;DHT22;9038;48.208;16.308;2023-09-19T04:39:08;19.60;99.90
17827;DHT22;9038;48.208;16.308;2023-09-19T04:41:11;19.50;99.90
17827;DHT22;9038;48.208;16.308;2023-09-19T04:43:13;19.50;99.90
17827;DHT22;9038;48.208;16.308;2023-09-19T04:45:15;19.40;99.90
17827;DHT22;9038;48.208;16.308;2023-09-19T04:47:18;19.40;99.90
17827;DHT22;9038;48.208;16.308;2023-09-19T04:49:21;19.40;99.90
17827;DHT22;9038;48.208;16.308;2023-09-19T04:51:23;19.40;99.90
17827;DHT22;9038;48.208;16.308;2023-09-19T04:53:26;19.40;99.90
17827;DHT22;9038;48.208;16.308;2023-09-19T04:55:28;19.40;99.90
17827;DHT22;9038;48.208;16.308;2023-09-19T04:57:30;19.30;99.90
17827;DHT22;9038;48.208;16.308;2023-09-19T04:59:33;19.30;99.90
17827;DHT22;9038;48.208;16.308;2023-09-19T05:01:34;19.30;99.90
17827;DHT22;9038;48.208;16.308;2023-09-19T05:03:38;19.30;99.90
17827;DHT22;9038;48.208;16.308;2023-09-19T05:05:38;19.20;99.90
17827;DHT22;9038;48.208;16.308;2023-09-19T05:07:41;19.20;99.90
17827;DHT22;9038;48.208;16.308;2023-09-19T05:09:44;19.30;99.90
17827;DHT22;9038;48.208;16.308;2023-09-19T05:11:46;19.20;99.90
17827;DHT22;9038;48.208;16.308;2023-09-19T05:13:47;19.20;99.90
17827;DHT22;9038;48.208;16.308;2023-09-19T05:15:50;19.10;99.90
17827;DHT22;9038;48.208;16.308;2023-09-19T05:17:51;19.10;99.90
17827;DHT22;9038;48.208;16.308;2023-09-19T05:19:57;19.10;99.90
17827;DHT22;9038;48.208;16.308;2023-09-19T05:22:01;19.10;99.90
17827;DHT22;9038;48.208;16.308;2023-09-19T05:24:04;19.00;99.90
17827;DHT22;9038;48.208;16.308;2023-09-19T05:26:07;18.90;99.90
17827;DHT22;9038;48.208;16.308;2023-09-19T05:28:09;18.90;99.90
17827;DHT22;9038;48.208;16.308;2023-09-19T05:30:12;18.80;99.90
17827;DHT22;9038;48.208;16.308;2023-09-19T05:32:16;18.80;99.90
17827;DHT22;9038;48.208;16.308;2023-09-19T05:34:19;18.80;99.90
17827;DHT22;9038;48.208;16.308;2023-09-19T05:36:23;18.70;99.90
17827;DHT22;9038;48.208;16.308;2023-09-19T05:38:25;18.70;99.90
17827;DHT22;9038;48.208;16.308;2023-09-19T05:40:27;18.80;99.90
17827;DHT22;9038;48.208;16.308;2023-09-19T05:42:29;18.80;99.90
17827;DHT22;9038;48.208;16.308;2023-09-19T05:44:30;18.80;99.90
17827;DHT22;9038;48.208;16.308;2023-09-19T05:46:33;18.90;99.90
17827;DHT22;9038;48.208;16.308;2023-09-19T05:48:35;18.90;99.90
17827;DHT22;9038;48.208;16.308;2023-09-19T05:50:37;18.90;99.90
17827;DHT22;9038;48.208;16.308;2023-09-19T05:52:40;18.90;99.90
17827;DHT22;9038;48.208;16.308;2023-09-19T05:54:44;19.00;99.90
17827;DHT22;9038;48.208;16.308;2023-09-19T05:56:46;19.00;99.90
17827;DHT22;9038;48.208;16.308;2023-09-19T05:58:47;19.00;99.90
17827;DHT22;9038;48.208;16.308;2023-09-19T06:00:50;19.10;99.90
17827;DHT22;9038;48.208;16.308;2023-09-19T06:02:52;19.10;99.90
17827;DHT22;9038;48.208;16.308;2023-09-19T06:04:54;19.10;99.90
17827;DHT22;9038;48.208;16.308;2023-09-19T06:06:56;19.10;99.90
17827;DHT22;9038;48.208;16.308;2023-09-19T06:09:00;19.10;99.90
17827;DHT22;9038;48.208;16.308;2023-09-19T06:11:02;19.20;99.90
17827;DHT22;9038;48.208;16.308;2023-09-19T06:13:05;19.20;99.90
17827;DHT22;9038;48.208;16.308;2023-09-19T06:15:10;19.30;99.90
17827;DHT22;9038;48.208;16.308;2023-09-19T06:17:15;19.30;99.90
17827;DHT22;9038;48.208;16.308;2023-09-19T06:19:17;19.40;99.90
17827;DHT22;9038;48.208;16.308;2023-09-19T06:21:19;19.50;99.90
17827;DHT22;9038;48.208;16.308;2023-09-19T06:23:20;19.60;99.90
17827;DHT22;9038;48.208;16.308;2023-09-19T06:25:24;19.60;99.90
17827;DHT22;9038;48.208;16.308;2023-09-19T06:27:26;19.70;99.90
17827;DHT22;9038;48.208;16.308;2023-09-19T06:29:28;19.70;99.90
17827;DHT22;9038;48.208;16.308;2023-09-19T06:31:29;19.80;99.90
17827;DHT22;9038;48.208;16.308;2023-09-19T06:33:31;19.90;99.90
17827;DHT22;9038;48.208;16.308;2023-09-19T06:35:33;19.90;99.90
17827;DHT22;9038;48.208;16.308;2023-09-19T06:37:35;19.90;99.90
17827;DHT22;9038;48.208;16.308;2023-09-19T06:39:36;20.00;99.90
17827;DHT22;9038;48.208;16.308;2023-09-19T06:41:39;20.10;99.90
17827;DHT22;9038;48.208;16.308;2023-09-19T06:43:40;20.00;99.90
17827;DHT22;9038;48.208;16.308;2023-09-19T06:45:42;20.10;99.90
17827;DHT22;9038;48.208;16.308;2023-09-19T06:47:44;20.20;99.90
17827;DHT22;9038;48.208;16.308;2023-09-19T06:49:46;20.20;99.90
17827;DHT22;9038;48.208;16.308;2023-09-19T06:51:48;20.20;99.90
17827;DHT22;9038;48.208;16.308;2023-09-19T06:53:50;20.20;99.90
17827;DHT22;9038;48.208;16.308;2023-09-19T06:55:54;20.20;99.90
17827;DHT22;9038;48.208;16.308;2023-09-19T06:57:57;20.30;99.90
17827;DHT22;9038;48.208;16.308;2023-09-19T06:59:59;20.30;99.90
17827;DHT22;9038;48.208;16.308;2023-09-19T07:02:01;20.30;99.90
17827;DHT22;9038;48.208;16.308;2023-09-19T07:04:03;20.30;99.90
17827;DHT22;9038;48.208;16.308;2023-09-19T07:06:05;20.30;99.90
17827;DHT22;9038;48.208;16.308;2023-09-19T07:08:09;20.40;99.90
17827;DHT22;9038;48.208;16.308;2023-09-19T07:10:12;20.40;99.90
17827;DHT22;9038;48.208;16.308;2023-09-19T07:12:14;20.40;99.90
17827;DHT22;9038;48.208;16.308;2023-09-19T07:14:19;20.60;99.90
17827;DHT22;9038;48.208;16.308;2023-09-19T07:16:21;20.60;99.90
17827;DHT22;9038;48.208;16.308;2023-09-19T07:18:29;20.60;99.90
17827;DHT22;9038;48.208;16.308;2023-09-19T07:20:31;20.70;99.90
17827;DHT22;9038;48.208;16.308;2023-09-19T07:22:33;20.60;99.90
17827;DHT22;9038;48.208;16.308;2023-09-19T07:24:34;20.70;99.90
17827;DHT22;9038;48.208;16.308;2023-09-19T07:26:37;20.60;99.90
17827;DHT22;9038;48.208;16.308;2023-09-19T07:28:40;20.60;99.90
17827;DHT22;9038;48.208;16.308;2023-09-19T07:30:43;20.60;99.90
17827;DHT22;9038;48.208;16.308;2023-09-19T07:32:45;20.60;99.90
17827;DHT22;9038;48.208;16.308;2023-09-19T07:34:47;20.60;99.90
17827;DHT22;9038;48.208;16.308;2023-09-19T07:36:48;20.60;99.90
17827;DHT22;9038;48.208;16.308;2023-09-19T07:38:50;20.60;99.90
17827;DHT22;9038;48.208;16.308;2023-09-19T07:40:52;20.70;99.90
17827;DHT22;9038;48.208;16.308;2023-09-19T07:42:54;20.70;99.90
17827;DHT22;9038;48.208;16.308;2023-09-19T07:44:55;20.70;99.90
17827;DHT22;9038;48.208;16.308;2023-09-19T07:46:57;20.70;99.90
17827;DHT22;9038;48.208;16.308;2023-09-19T07:48:59;20.80;99.90
17827;DHT22;9038;48.208;16.308;2023-09-19T07:51:01;20.90;99.90
17827;DHT22;9038;48.208;16.308;2023-09-19T07:53:03;21.00;99.90
17827;DHT22;9038;48.208;16.308;2023-09-19T07:55:06;21.00;99.90
17827;DHT22;9038;48.208;16.308;2023-09-19T07:57:11;21.20;99.90
17827;DHT22;9038;48.208;16.308;2023-09-19T07:59:14;21.30;99.90
17827;DHT22;9038;48.208;16.308;2023-09-19T08:01:16;21.40;99.90
17827;DHT22;9038;48.208;16.308;2023-09-19T08:03:19;21.60;99.90
17827;DHT22;9038;48.208;16.308;2023-09-19T08:05:21;21.70;99.90
17827;DHT22;9038;48.208;16.308;2023-09-19T08:07:23;21.70;99.90
17827;DHT22;9038;48.208;16.308;2023-09-19T08:09:24;21.80;99.90
17827;DHT22;9038;48.208;16.308;2023-09-19T08:11:26;21.90;99.90
17827;DHT22;9038;48.208;16.308;2023-09-19T08:13:31;21.90;99.90
17827;DHT22;9038;48.208;16.308;2023-09-19T08:15:32;22.00;99.90
17827;DHT22;9038;48.208;16.308;2023-09-19T08:17:33;22.10;99.90
17827;DHT22;9038;48.208;16.308;2023-09-19T08:19:36;22.10;99.90
17827;DHT22;9038;48.208;16.308;2023-09-19T08:21:41;22.30;99.90
17827;DHT22;9038;48.208;16.308;2023-09-19T08:23:46;22.40;99.90
17827;DHT22;9038;48.208;16.308;2023-09-19T08:25:47;22.50;99.90
17827;DHT22;9038;48.208;16.308;2023-09-19T08:27:49;22.70;99.90
17827;DHT22;9038;48.208;16.308;2023-09-19T08:29:51;22.70;99.90
17827;DHT22;9038;48.208;16.308;2023-09-19T08:31:53;22.70;99.90
17827;DHT22;9038;48.208;16.308;2023-09-19T08:33:56;22.60;99.90
17827;DHT22;9038;48.208;16.308;2023-09-19T08:35:59;22.60;99.90
17827;DHT22;9038;48.208;16.308;2023-09-19T08:38:00;22.60;99.90
17827;DHT22;9038;48.208;16.308;2023-09-19T08:40:04;22.50;99.90
17827;DHT22;9038;48.208;16.308;2023-09-19T08:42:09;22.40;99.90
17827;DHT22;9038;48.208;16.308;2023-09-19T08:44:11;22.40;99.90
17827;DHT22;9038;48.208;16.308;2023-09-19T08:46:14;22.30;99.90
17827;DHT22;9038;48.208;16.308;2023-09-19T08:48:19;22.30;99.90
17827;DHT22;9038;48.208;16.308;2023-09-19T08:50:23;22.20;99.90
17827;DHT22;9038;48.208;16.308;2023-09-19T08:52:32;22.10;99.90
17827;DHT22;9038;48.208;16.308;2023-09-19T08:54:35;22.10;99.90
17827;DHT22;9038;48.208;16.308;2023-09-19T08:56:39;22.10;99.90
17827;DHT22;9038;48.208;16.308;2023-09-19T08:58:44;22.10;99.90
17827;DHT22;9038;48.208;16.308;2023-09-19T09:00:47;22.10;99.90
17827;DHT22;9038;48.208;16.308;2023-09-19T09:02:50;22.10;99.90
17827;DHT22;9038;48.208;16.308;2023-09-19T09:04:51;22.10;99.90
17827;DHT22;9038;48.208;16.308;2023-09-19T09:06:55;22.00;99.90
17827;DHT22;9038;48.208;16.308;2023-09-19T09:08:58;22.00;99.90
17827;DHT22;9038;48.208;16.308;2023-09-19T09:11:00;22.00;99.90
17827;DHT22;9038;48.208;16.308;2023-09-19T09:13:02;22.00;99.90
17827;DHT22;9038;48.208;16.308;2023-09-19T09:15:04;22.10;99.90
17827;DHT22;9038;48.208;16.308;2023-09-19T09:17:06;22.10;99.90
17827;DHT22;9038;48.208;16.308;2023-09-19T09:19:08;22.10;99.90
17827;DHT22;9038;48.208;16.308;2023-09-19T09:21:11;22.10;99.90
17827;DHT22;9038;48.208;16.308;2023-09-19T09:23:16;22.10;99.90
17827;DHT22;9038;48.208;16.308;2023-09-19T09:25:19;22.10;99.90
17827;DHT22;9038;48.208;16.308;2023-09-19T09:27:24;22.20;99.90
17827;DHT22;9038;48.208;16.308;2023-09-19T09:29:41;22.20;99.90
17827;DHT22;9038;48.208;16.308;2023-09-19T09:31:43;22.40;99.90
17827;DHT22;9038;48.208;16.308;2023-09-19T09:33:52;22.60;99.90
17827;DHT22;9038;48.208;16.308;2023-09-19T09:35:54;22.70;99.90
17827;DHT22;9038;48.208;16.308;2023-09-19T09:37:59;22.90;99.90
17827;DHT22;9038;48.208;16.308;2023-09-19T09:40:03;23.20;99.90
17827;DHT22;9038;48.208;16.308;2023-09-19T09:42:30;23.70;99.90
17827;DHT22;9038;48.208;16.308;2023-09-19T09:44:32;24.50;99.90
17827;DHT22;9038;48.208;16.308;2023-09-19T09:46:34;24.90;99.90
17827;DHT22;9038;48.208;16.308;2023-09-19T09:48:56;25.20;99.90
17827;DHT22;9038;48.208;16.308;2023-09-19T09:51:11;25.80;99.90
17827;DHT22;9038;48.208;16.308;2023-09-19T09:53:20;26.60;99.90
17827;DHT22;9038;48.208;16.308;2023-09-19T09:55:25;27.30;99.90
17827;DHT22;9038;48.208;16.308;2023-09-19T09:57:27;27.70;99.90
17827;DHT22;9038;48.208;16.308;2023-09-19T09:59:44;27.80;99.90
17827;DHT22;9038;48.208;16.308;2023-09-19T10:01:46;27.90;99.90
17827;DHT22;9038;48.208;16.308;2023-09-19T10:03:49;27.80;99.90
17827;DHT22;9038;48.208;16.308;2023-09-19T10:05:53;27.80;99.90
17827;DHT22;9038;48.208;16.308;2023-09-19T10:07:55;27.90;99.90
17827;DHT22;9038;48.208;16.308;2023-09-19T10:10:01;28.20;99.90
17827;DHT22;9038;48.208;16.308;2023-09-19T10:12:10;27.80;99.90
17827;DHT22;9038;48.208;16.308;2023-09-19T10:14:13;28.10;99.90
17827;DHT22;9038;48.208;16.308;2023-09-19T10:16:17;28.20;99.60
17827;DHT22;9038;48.208;16.308;2023-09-19T10:18:20;28.20;99.00
17827;DHT22;9038;48.208;16.308;2023-09-19T10:20:21;28.50;98.40
17827;DHT22;9038;48.208;16.308;2023-09-19T10:22:24;28.60;97.80
17827;DHT22;9038;48.208;16.308;2023-09-19T10:24:26;28.70;97.50
17827;DHT22;9038;48.208;16.308;2023-09-19T10:44:54;34.20;72.90
17827;DHT22;9038;48.208;16.308;2023-09-19T10:46:56;34.30;71.80
17827;DHT22;9038;48.208;16.308;2023-09-19T10:51:02;36.20;66.60
17827;DHT22;9038;48.208;16.308;2023-09-19T10:53:05;37.40;62.40
17827;DHT22;9038;48.208;16.308;2023-09-19T10:55:08;37.80;58.80
17827;DHT22;9038;48.208;16.308;2023-09-19T10:57:11;38.00;57.50
17827;DHT22;9038;48.208;16.308;2023-09-19T10:59:17;38.20;56.10
17827;DHT22;9038;48.208;16.308;2023-09-19T11:01:21;38.20;55.50
17827;DHT22;9038;48.208;16.308;2023-09-19T11:03:23;38.00;54.30
17827;DHT22;9038;48.208;16.308;2023-09-19T11:05:30;36.90;55.50
17827;DHT22;9038;48.208;16.308;2023-09-19T11:07:31;36.20;56.60
17827;DHT22;9038;48.208;16.308;2023-09-19T11:09:42;35.70;57.10
17827;DHT22;9038;48.208;16.308;2023-09-19T11:11:44;35.90;56.50
17827;DHT22;9038;48.208;16.308;2023-09-19T15:07:24;28.70;58.50
17827;DHT22;9038;48.208;16.308;2023-09-19T15:09:27;28.50;59.60
17827;DHT22;9038;48.208;16.308;2023-09-19T15:11:30;28.40;60.10
17827;DHT22;9038;48.208;16.308;2023-09-19T15:13:31;28.20;60.90
17827;DHT22;9038;48.208;16.308;2023-09-19T15:15:33;28.10;60.70
17827;DHT22;9038;48.208;16.308;2023-09-19T15:17:35;28.10;61.00
17827;DHT22;9038;48.208;16.308;2023-09-19T15:19:37;28.20;61.30
17827;DHT22;9038;48.208;16.308;2023-09-19T15:21:39;28.30;60.80
17827;DHT22;9038;48.208;16.308;2023-09-19T15:23:43;28.40;61.40
17827;DHT22;9038;48.208;16.308;2023-09-19T15:25:47;28.30;61.00
17827;DHT22;9038;48.208;16.308;2023-09-19T15:27:48;28.30;62.50
17827;DHT22;9038;48.208;16.308;2023-09-19T15:29:51;28.40;61.20
17827;DHT22;9038;48.208;16.308;2023-09-19T15:31:55;28.50;60.60
17827;DHT22;9038;48.208;16.308;2023-09-19T15:33:59;28.60;60.40
17827;DHT22;9038;48.208;16.308;2023-09-19T15:36:02;28.60;60.00
17827;DHT22;9038;48.208;16.308;2023-09-19T15:38:05;28.50;59.90
17827;DHT22;9038;48.208;16.308;2023-09-19T15:40:08;28.50;59.90
17827;DHT22;9038;48.208;16.308;2023-09-19T15:42:13;28.40;60.50
17827;DHT22;9038;48.208;16.308;2023-09-19T15:44:17;28.50;60.70
17827;DHT22;9038;48.208;16.308;2023-09-19T15:46:20;28.60;61.00
17827;DHT22;9038;48.208;16.308;2023-09-19T15:48:23;28.50;60.70
17827;DHT22;9038;48.208;16.308;2023-09-19T15:50:26;28.30;61.30
17827;DHT22;9038;48.208;16.308;2023-09-19T15:52:30;28.20;61.60
17827;DHT22;9038;48.208;16.308;2023-09-19T15:54:32;28.20;62.00
17827;DHT22;9038;48.208;16.308;2023-09-19T15:56:36;28.00;62.50
17827;DHT22;9038;48.208;16.308;2023-09-19T15:58:41;27.90;62.70
17827;DHT22;9038;48.208;16.308;2023-09-19T16:00:44;27.80;63.20
17827;DHT22;9038;48.208;16.308;2023-09-19T16:02:47;27.60;63.30
17827;DHT22;9038;48.208;16.308;2023-09-19T16:04:50;27.50;63.80
17827;DHT22;9038;48.208;16.308;2023-09-19T16:06:53;27.20;64.50
17827;DHT22;9038;48.208;16.308;2023-09-19T16:08:55;27.00;64.80
17827;DHT22;9038;48.208;16.308;2023-09-19T16:10:58;26.90;65.10
17827;DHT22;9038;48.208;16.308;2023-09-19T16:13:02;26.80;65.90
17827;DHT22;9038;48.208;16.308;2023-09-19T16:15:05;26.70;65.00
17827;DHT22;9038;48.208;16.308;2023-09-19T16:17:10;26.60;66.00
17827;DHT22;9038;48.208;16.308;2023-09-19T16:19:12;26.50;67.20
17827;DHT22;9038;48.208;16.308;2023-09-19T16:21:15;26.30;67.00
17827;DHT22;9038;48.208;16.308;2023-09-19T16:23:18;26.10;66.80
17827;DHT22;9038;48.208;16.308;2023-09-19T16:25:21;26.00;67.60
17827;DHT22;9038;48.208;16.308;2023-09-19T16:27:24;26.00;67.90
17827;DHT22;9038;48.208;16.308;2023-09-19T16:29:28;25.90;68.60
17827;DHT22;9038;48.208;16.308;2023-09-19T16:31:30;25.90;68.60
17827;DHT22;9038;48.208;16.308;2023-09-19T16:33:33;25.80;69.10
17827;DHT22;9038;48.208;16.308;2023-09-19T16:35:36;25.70;70.10
17827;DHT22;9038;48.208;16.308;2023-09-19T16:37:40;25.60;70.00
17827;DHT22;9038;48.208;16.308;2023-09-19T16:39:42;25.50;70.50
17827;DHT22;9038;48.208;16.308;2023-09-19T16:41:44;25.40;71.20
17827;DHT22;9038;48.208;16.308;2023-09-19T16:43:46;25.40;71.90
17827;DHT22;9038;48.208;16.308;2023-09-19T16:45:53;25.30;72.20
17827;DHT22;9038;48.208;16.308;2023-09-19T16:47:55;25.20;72.70
17827;DHT22;9038;48.208;16.308;2023-09-19T16:50:07;25.10;74.00
17827;DHT22;9038;48.208;16.308;2023-09-19T16:52:10;24.90;73.70
17827;DHT22;9038;48.208;16.308;2023-09-19T16:54:13;24.90;74.40
17827;DHT22;9038;48.208;16.308;2023-09-19T16:56:15;24.80;74.50
17827;DHT22;9038;48.208;16.308;2023-09-19T16:58:18;24.70;75.00
17827;DHT22;9038;48.208;16.308;2023-09-19T17:00:19;24.60;75.80
17827;DHT22;9038;48.208;16.308;2023-09-19T17:02:24;24.60;75.90
17827;DHT22;9038;48.208;16.308;2023-09-19T17:04:26;24.50;76.70
17827;DHT22;9038;48.208;16.308;2023-09-19T17:06:30;24.30;77.40
17827;DHT22;9038;48.208;16.308;2023-09-19T17:08:32;24.30;78.20
17827;DHT22;9038;48.208;16.308;2023-09-19T17:10:42;24.20;78.40
17827;DHT22;9038;48.208;16.308;2023-09-19T17:12:45;24.20;79.10